createdAt,value
2023-01-22T00:00:44.215Z,95483.09
2023-01-22T00:03:11.821Z,95489.13
2023-01-22T00:05:39.465Z,95483.09
2023-01-22T00:08:07.386Z,95486.50
2023-01-22T00:10:35.041Z,95478.81
2023-01-22T00:13:02.682Z,95473.59
2023-01-22T00:15:30.381Z,95478.81
2023-01-22T00:17:59.451Z,95477.03
2023-01-22T00:20:27.381Z,95480.59
2023-01-22T00:22:54.983Z,95484.88
2023-01-22T00:25:23.961Z,95484.19
2023-01-22T00:27:51.589Z,95478.00
2023-01-22T00:30:19.629Z,95486.81
2023-01-22T00:32:47.680Z,95483.38
2023-01-22T00:35:16.739Z,95487.63
2023-01-22T00:37:44.362Z,95483.38
2023-01-22T00:40:13.363Z,95488.44
2023-01-22T00:42:41.026Z,95482.41
2023-01-22T00:45:09.777Z,95481.59
2023-01-22T00:47:37.473Z,95479.94
2023-01-22T00:50:05.654Z,95484.31
2023-01-22T00:52:35.155Z,95473.88
2023-01-22T00:55:02.814Z,95469.47
2023-01-22T00:57:30.456Z,95476.47
2023-01-22T00:59:58.091Z,95470.31
2023-01-22T01:02:25.765Z,95477.31
2023-01-22T01:04:53.400Z,95473.88
2023-01-22T01:07:21.265Z,95473.06
2023-01-22T01:09:50.377Z,95482.53
2023-01-22T01:12:18.086Z,95482.53
2023-01-22T01:14:45.767Z,95476.47
2023-01-22T01:17:13.389Z,95482.69
2023-01-22T01:19:41.037Z,95483.50
2023-01-22T01:22:08.889Z,95480.91
2023-01-22T01:24:37.065Z,95483.50
2023-01-22T01:27:06.131Z,95482.69
2023-01-22T01:29:33.789Z,95488.72
2023-01-22T01:32:01.557Z,95489.69
2023-01-22T01:34:29.301Z,95481.03
2023-01-22T01:36:56.927Z,95487.06
2023-01-22T01:39:24.537Z,95481.84
2023-01-22T01:41:52.260Z,95484.47
2023-01-22T01:44:23.847Z,95483.63
2023-01-22T01:46:55.107Z,95490.66
2023-01-22T01:49:29.373Z,95485.44
2023-01-22T01:51:59.125Z,95486.38
2023-01-22T01:54:27.605Z,95489.16
2023-01-22T01:57:01.486Z,95491.75
2023-01-22T01:59:33.501Z,95486.63
2023-01-22T02:02:03.559Z,95489.16
2023-01-22T02:04:31.668Z,95483.94
2023-01-22T02:06:59.308Z,95475.13
2023-01-22T02:09:28.278Z,95478.56
2023-01-22T02:11:55.972Z,95481.16
2023-01-22T02:14:26.817Z,95479.41
2023-01-22T02:17:03.034Z,95478.56
2023-01-22T02:19:30.707Z,95481.03
2023-01-22T02:21:59.724Z,95480.22
2023-01-22T02:24:31.177Z,95478.41
2023-01-22T02:26:58.821Z,95478.41
2023-01-22T02:29:26.970Z,95475.94
2023-01-22T02:31:54.674Z,95482.00
2023-01-22T02:34:24.542Z,95478.41
2023-01-22T02:36:53.301Z,95475.81
2023-01-22T02:39:22.378Z,95477.63
2023-01-22T02:41:50.043Z,95474.31
2023-01-22T02:44:17.709Z,95482.94
2023-01-22T02:46:45.323Z,95481.31
2023-01-22T02:49:13.084Z,95484.75
2023-01-22T02:51:40.713Z,95482.94
2023-01-22T02:54:08.382Z,95478.72
2023-01-22T02:56:37.440Z,95477.72
2023-01-22T02:59:05.787Z,95475.13
2023-01-22T03:01:33.636Z,95480.34
2023-01-22T03:04:11.043Z,95477.84
2023-01-22T03:06:40.201Z,95480.59
2023-01-22T03:09:08.782Z,95476.19
2023-01-22T03:11:39.350Z,95472.78
2023-01-22T03:14:24.794Z,95471.25
2023-01-22T03:17:10.224Z,95481.56
2023-01-22T03:19:55.623Z,95486.78
2023-01-22T03:22:23.420Z,95485.00
2023-01-22T03:24:52.991Z,95472.78
2023-01-22T03:27:23.838Z,95482.25
2023-01-22T03:29:51.932Z,95484.75
2023-01-22T03:32:20.027Z,95478.56
2023-01-22T03:34:47.736Z,95491.75
2023-01-22T03:37:15.579Z,95488.16
2023-01-22T03:39:43.575Z,95490.78
2023-01-22T03:42:11.342Z,95486.53
2023-01-22T03:44:40.334Z,95489.16
2023-01-22T03:47:07.995Z,95492.69
2023-01-22T03:49:35.618Z,95494.38
2023-01-22T03:52:03.277Z,95490.78
2023-01-22T03:54:30.916Z,95497.81
2023-01-22T03:56:58.650Z,95502.19
2023-01-22T03:59:26.268Z,95504.09
2023-01-22T04:01:55.296Z,95510.09
2023-01-22T04:04:22.981Z,95507.50
2023-01-22T04:06:50.666Z,95504.88
2023-01-22T04:09:18.593Z,95511.91
2023-01-22T04:11:46.283Z,95516.16
2023-01-22T04:14:13.950Z,95505.88
2023-01-22T04:16:41.594Z,95511.25
2023-01-22T04:19:11.870Z,95506.69
2023-01-22T04:21:39.504Z,95511.09
2023-01-22T04:24:07.417Z,95518.91
2023-01-22T04:26:35.130Z,95516.31
2023-01-22T04:29:02.793Z,95517.25
2023-01-22T04:31:30.737Z,95526.75
2023-01-22T04:33:58.489Z,95522.34
2023-01-22T04:36:29.017Z,95519.88
2023-01-22T04:38:56.782Z,95522.34
2023-01-22T04:41:24.413Z,95522.34
2023-01-22T04:43:52.087Z,95522.34
2023-01-22T04:46:19.949Z,95529.22
2023-01-22T04:48:47.573Z,95522.34
2023-01-22T04:51:15.291Z,95531.00
2023-01-22T04:53:44.290Z,95525.75
2023-01-22T04:56:11.950Z,95533.59
2023-01-22T04:58:39.566Z,95529.50
2023-01-22T05:01:07.289Z,95531.97
2023-01-22T05:03:34.989Z,95538.97
2023-01-22T05:06:03.795Z,95530.31
2023-01-22T05:08:31.410Z,95535.41
2023-01-22T05:11:02.751Z,95536.50
2023-01-22T05:13:30.439Z,95532.91
2023-01-22T05:15:58.139Z,95536.34
2023-01-22T05:18:25.808Z,95542.41
2023-01-22T05:20:53.456Z,95540.47
2023-01-22T05:23:21.082Z,95557.84
2023-01-22T05:25:49.763Z,95549.16
2023-01-22T05:28:18.750Z,95549.03
2023-01-22T05:30:48.470Z,95545.59
2023-01-22T05:33:16.245Z,95558.50
2023-01-22T05:35:43.872Z,95554.09
2023-01-22T05:38:11.540Z,95549.72
2023-01-22T05:40:39.167Z,95551.47
2023-01-22T05:43:06.827Z,95554.09
2023-01-22T05:45:35.797Z,95557.53
2023-01-22T05:48:03.825Z,95558.38
2023-01-22T05:50:31.485Z,95562.59
2023-01-22T05:52:59.167Z,95565.22
2023-01-22T05:55:26.851Z,95569.63
2023-01-22T05:57:54.587Z,95567.81
2023-01-22T06:00:22.500Z,95565.38
2023-01-22T06:02:55.872Z,95570.59
2023-01-22T06:05:23.634Z,95567.97
2023-01-22T06:07:51.351Z,95573.19
2023-01-22T06:10:20.047Z,95575.81
2023-01-22T06:12:48.037Z,95584.47
2023-01-22T06:15:15.796Z,95578.28
2023-01-22T06:17:43.417Z,95573.19
2023-01-22T06:20:12.955Z,95580.06
2023-01-22T06:22:40.580Z,95587.06
2023-01-22T06:25:09.423Z,95581.03
2023-01-22T06:27:37.097Z,95582.81
2023-01-22T06:30:05.344Z,95576.78
2023-01-22T06:32:32.991Z,95580.19
2023-01-22T06:35:00.690Z,95591.47
2023-01-22T06:37:29.669Z,95594.91
2023-01-22T06:39:57.303Z,95589.84
2023-01-22T06:42:24.974Z,95598.47
2023-01-22T06:44:52.595Z,95599.44
2023-01-22T06:47:20.233Z,95606.44
2023-01-22T06:49:47.885Z,95602.88
2023-01-22T06:52:15.497Z,95600.94
2023-01-22T06:54:44.484Z,95598.34
2023-01-22T06:57:12.184Z,95603.56
2023-01-22T06:59:39.830Z,95604.50
2023-01-22T07:02:07.685Z,95610.56
2023-01-22T07:04:35.340Z,95616.63
2023-01-22T07:07:02.962Z,95619.22
2023-01-22T07:09:30.648Z,95620.84
2023-01-22T07:12:01.092Z,95625.25
2023-01-22T07:14:36.848Z,95621.00
2023-01-22T07:17:05.004Z,95627.06
2023-01-22T07:19:32.826Z,95627.06
2023-01-22T07:22:00.526Z,95626.38
2023-01-22T07:24:28.201Z,95628.00
2023-01-22T07:26:55.873Z,95631.59
2023-01-22T07:29:24.880Z,95628.97
2023-01-22T07:31:52.608Z,95634.19
2023-01-22T07:34:20.529Z,95624.56
2023-01-22T07:36:48.180Z,95634.19
2023-01-22T07:39:15.823Z,95630.75
2023-01-22T07:41:43.564Z,95626.47
2023-01-22T07:44:11.626Z,95634.19
2023-01-22T07:46:40.687Z,95633.22
2023-01-22T07:49:08.539Z,95635.00
2023-01-22T07:51:36.262Z,95634.06
2023-01-22T07:54:04.533Z,95641.06
2023-01-22T07:56:32.219Z,95642.81
2023-01-22T07:59:00.172Z,95643.66
2023-01-22T08:01:27.917Z,95639.28
2023-01-22T08:03:57.282Z,95640.09
2023-01-22T08:06:25.093Z,95646.97
2023-01-22T08:08:52.740Z,95640.09
2023-01-22T08:11:20.387Z,95643.66
2023-01-22T08:13:48.049Z,95646.13
2023-01-22T08:16:15.720Z,95643.66
2023-01-22T08:18:43.409Z,95655.88
2023-01-22T08:21:12.476Z,95652.31
2023-01-22T08:23:40.093Z,95652.31
2023-01-22T08:26:07.776Z,95660.00
2023-01-22T08:28:35.409Z,95650.53
2023-01-22T08:31:06.527Z,95656.56
2023-01-22T08:33:35.429Z,95653.16
2023-01-22T08:36:03.085Z,95657.41
2023-01-22T08:38:32.052Z,95653.00
2023-01-22T08:40:59.721Z,95662.63
2023-01-22T08:43:27.505Z,95667.00
2023-01-22T08:45:55.218Z,95665.22
2023-01-22T08:48:22.911Z,95667.00
2023-01-22T08:50:50.595Z,95667.00
2023-01-22T08:53:18.254Z,95665.22
2023-01-22T08:55:51.075Z,95673.88
2023-01-22T08:58:20.407Z,95673.88
2023-01-22T09:00:48.085Z,95679.09
2023-01-22T09:03:15.752Z,95679.94
2023-01-22T09:05:43.847Z,95696.28
2023-01-22T09:08:11.452Z,95691.22
2023-01-22T09:10:39.224Z,95694.50
2023-01-22T09:13:08.187Z,95698.91
2023-01-22T09:15:35.836Z,95702.34
2023-01-22T09:18:03.562Z,95706.72
2023-01-22T09:20:31.207Z,95715.38
2023-01-22T09:22:58.870Z,95714.56
2023-01-22T09:25:26.711Z,95718.09
2023-01-22T09:27:58.452Z,95726.91
2023-01-22T09:30:27.882Z,95725.00
2023-01-22T09:32:55.510Z,95725.94
2023-01-22T09:35:23.220Z,95736.38
2023-01-22T09:37:50.892Z,95728.69
2023-01-22T09:40:26.521Z,95737.34
2023-01-22T09:43:11.238Z,95739.13
2023-01-22T09:45:42.331Z,95740.81
2023-01-22T09:48:16.110Z,95742.56
2023-01-22T09:50:44.014Z,95741.59
2023-01-22T09:53:16.723Z,95738.19
2023-01-22T09:55:46.987Z,95739.81
2023-01-22T09:58:17.034Z,95739.00
2023-01-22T10:00:49.768Z,95745.03
2023-01-22T10:03:24.347Z,95740.88
2023-01-22T10:05:56.422Z,95749.19
2023-01-22T10:08:28.878Z,95747.13
2023-01-22T10:10:56.984Z,95744.38
2023-01-22T10:13:26.371Z,95753.00
2023-01-22T10:15:56.985Z,95750.81
2023-01-22T10:18:34.484Z,95746.91
2023-01-22T10:21:14.270Z,95747.44
2023-01-22T10:23:41.945Z,95755.50
2023-01-22T10:26:17.983Z,95751.38
2023-01-22T10:28:47.101Z,95759.59
2023-01-22T10:31:38.088Z,95752.03
2023-01-22T10:34:13.976Z,95753.13
2023-01-22T10:36:47.510Z,95753.97
2023-01-22T10:39:17.269Z,95749.81
2023-01-22T10:41:47.009Z,95759.41
2023-01-22T10:44:21.551Z,95753.38
2023-01-22T10:46:51.602Z,95752.53
2023-01-22T10:49:21.873Z,95747.47
2023-01-22T10:51:55.613Z,95752.94
2023-01-22T10:54:28.281Z,95750.34
2023-01-22T10:57:06.000Z,95748.94
2023-01-22T10:59:34.262Z,95751.66
2023-01-22T11:02:12.243Z,95755.63
2023-01-22T11:04:39.921Z,95753.03
2023-01-22T11:07:09.401Z,95753.72
2023-01-22T11:09:42.709Z,95751.22
2023-01-22T11:12:17.173Z,95748.94
2023-01-22T11:14:46.511Z,95744.16
2023-01-22T11:17:22.795Z,95749.81
2023-01-22T11:19:58.216Z,95745.84
2023-01-22T11:22:33.360Z,95740.16
2023-01-22T11:25:01.105Z,95741.41
2023-01-22T11:28:00.512Z,95730.72
2023-01-22T11:30:54.280Z,95739.78
2023-01-22T11:33:33.557Z,95748.19
2023-01-22T11:36:07.221Z,95747.06
2023-01-22T11:38:43.576Z,95746.53
2023-01-22T11:41:28.089Z,95740.63
2023-01-22T11:44:24.067Z,95738.84
2023-01-22T11:47:10.082Z,95743.09
2023-01-22T11:49:50.030Z,95746.38
2023-01-22T11:52:27.632Z,95740.22
2023-01-22T11:55:11.405Z,95735.56
2023-01-22T11:57:43.958Z,95732.94
2023-01-22T12:00:27.232Z,95737.09
2023-01-22T12:03:45.979Z,95728.31
2023-01-22T12:06:31.390Z,95737.78
2023-01-22T12:09:08.393Z,95736.00
2023-01-22T12:11:53.691Z,95728.19
2023-01-22T12:14:36.605Z,95729.00
2023-01-22T12:17:17.509Z,95726.25
2023-01-22T12:20:04.160Z,95728.03
2023-01-22T12:22:39.465Z,95728.03
2023-01-22T12:25:19.468Z,95715.81
2023-01-22T12:27:53.391Z,95730.53
2023-01-22T12:30:24.629Z,95730.53
2023-01-22T12:32:56.942Z,95726.25
2023-01-22T12:35:25.919Z,95732.16
2023-01-22T12:38:03.723Z,95727.09
2023-01-22T12:40:50.200Z,95725.16
2023-01-22T12:43:23.500Z,95720.78
2023-01-22T12:45:56.624Z,95737.25
2023-01-22T12:48:29.803Z,95727.63
2023-01-22T12:50:58.994Z,95732.84
2023-01-22T12:53:30.814Z,95734.53
2023-01-22T12:56:00.889Z,95735.34
2023-01-22T12:58:31.207Z,95735.34
2023-01-22T13:01:08.673Z,95735.34
2023-01-22T13:03:37.263Z,95744.13
2023-01-22T13:06:19.560Z,95750.03
2023-01-22T13:08:48.634Z,95746.59
2023-01-22T13:11:30.272Z,95755.25
2023-01-22T13:14:14.873Z,95749.19
2023-01-22T13:16:54.873Z,95751.81
2023-01-22T13:19:24.919Z,95759.53
2023-01-22T13:21:53.667Z,95758.69
2023-01-22T13:24:22.944Z,95752.66
2023-01-22T13:26:53.832Z,95760.34
2023-01-22T13:29:27.060Z,95758.69
2023-01-22T13:31:56.535Z,95762.13
2023-01-22T13:34:25.095Z,95759.53
2023-01-22T13:36:53.270Z,95763.78
2023-01-22T13:39:26.509Z,95753.47
2023-01-22T13:41:56.210Z,95763.91
2023-01-22T13:44:26.776Z,95765.56
2023-01-22T13:46:54.991Z,95766.38
2023-01-22T13:49:24.901Z,95767.22
2023-01-22T13:51:53.255Z,95772.44
2023-01-22T13:54:26.236Z,95770.66
2023-01-22T13:56:53.941Z,95777.50
2023-01-22T13:59:23.840Z,95778.50
2023-01-22T14:01:52.112Z,95785.34
2023-01-22T14:04:28.807Z,95783.72
2023-01-22T14:06:57.173Z,95782.72
2023-01-22T14:09:31.665Z,95787.94
2023-01-22T14:12:00.024Z,95784.50
2023-01-22T14:14:28.088Z,95788.94
2023-01-22T14:16:55.802Z,95787.13
2023-01-22T14:19:24.519Z,95787.13
2023-01-22T14:21:52.149Z,95791.53
2023-01-22T14:24:19.801Z,95788.09
2023-01-22T14:26:48.802Z,95789.88
2023-01-22T14:29:16.443Z,95796.88
2023-01-22T14:31:44.199Z,95799.38
2023-01-22T14:34:12.462Z,95800.16
2023-01-22T14:36:40.083Z,95805.38
2023-01-22T14:39:08.157Z,95799.22
2023-01-22T14:41:35.951Z,95810.59
2023-01-22T14:44:05.421Z,95808.81
2023-01-22T14:46:33.254Z,95810.59
2023-01-22T14:49:01.876Z,95812.28
2023-01-22T14:51:29.541Z,95809.81
2023-01-22T14:53:58.110Z,95812.41
2023-01-22T14:56:25.896Z,95820.25
2023-01-22T14:58:53.529Z,95818.44
2023-01-22T15:01:23.946Z,95827.25
2023-01-22T15:03:52.322Z,95818.56
2023-01-22T15:06:19.971Z,95827.09
2023-01-22T15:08:47.659Z,95827.09
2023-01-22T15:11:15.293Z,95826.41
2023-01-22T15:13:42.926Z,95837.53
2023-01-22T15:16:12.054Z,95830.69
2023-01-22T15:18:41.058Z,95829.84
2023-01-22T15:21:09.088Z,95835.91
2023-01-22T15:23:36.814Z,95836.69
2023-01-22T15:26:07.961Z,95833.16
2023-01-22T15:28:35.701Z,95844.41
2023-01-22T15:31:07.642Z,95838.38
2023-01-22T15:33:35.600Z,95839.31
2023-01-22T15:36:05.811Z,95836.59
2023-01-22T15:38:33.496Z,95845.25
2023-01-22T15:41:06.080Z,95849.50
2023-01-22T15:43:34.365Z,95846.06
2023-01-22T15:46:02.095Z,95840.84
2023-01-22T15:48:29.802Z,95846.06
2023-01-22T15:51:08.568Z,95840.84
2023-01-22T15:53:36.314Z,95846.88
2023-01-22T15:56:04.455Z,95846.06
2023-01-22T15:58:33.272Z,95842.66
2023-01-22T16:01:01.168Z,95846.88
2023-01-22T16:03:28.836Z,95851.28
2023-01-22T16:05:56.465Z,95849.63
2023-01-22T16:08:25.463Z,95849.63
2023-01-22T16:10:53.081Z,95845.25
2023-01-22T16:13:20.722Z,95851.41
2023-01-22T16:15:57.724Z,95855.69
2023-01-22T16:18:25.366Z,95852.25
2023-01-22T16:20:53.009Z,95855.69
2023-01-22T16:23:20.896Z,95854.84
2023-01-22T16:25:49.883Z,95854.84
2023-01-22T16:28:17.493Z,95864.47
2023-01-22T16:30:45.231Z,95852.25
2023-01-22T16:33:19.832Z,95866.13
2023-01-22T16:35:47.614Z,95862.69
2023-01-22T16:38:15.386Z,95868.75
2023-01-22T16:40:43.008Z,95865.28
2023-01-22T16:43:12.019Z,95873.81
2023-01-22T16:45:39.650Z,95879.19
2023-01-22T16:48:07.487Z,95874.91
2023-01-22T16:50:35.252Z,95873.00
2023-01-22T16:53:02.879Z,95873.97
2023-01-22T16:55:30.543Z,95879.19
2023-01-22T16:58:00.093Z,95874.75
2023-01-22T17:00:29.105Z,95885.19
2023-01-22T17:02:56.788Z,95878.34
2023-01-22T17:05:24.464Z,95893.03
2023-01-22T17:07:52.157Z,95886.19
2023-01-22T17:10:20.338Z,95885.34
2023-01-22T17:12:48.160Z,95886.19
2023-01-22T17:15:15.828Z,95888.78
2023-01-22T17:17:44.801Z,95892.22
2023-01-22T17:20:13.307Z,95893.16
2023-01-22T17:22:41.118Z,95898.38
2023-01-22T17:25:09.430Z,95898.38
2023-01-22T17:27:37.209Z,95896.63
2023-01-22T17:30:05.691Z,95894.00
2023-01-22T17:32:33.374Z,95879.19
2023-01-22T17:35:02.718Z,95896.47
2023-01-22T17:37:30.476Z,95886.19
2023-01-22T17:39:58.283Z,95903.47
2023-01-22T17:42:25.952Z,95904.44
2023-01-22T17:44:53.601Z,95904.31
2023-01-22T17:47:21.326Z,95899.09
2023-01-22T17:49:49.161Z,95904.16
2023-01-22T17:52:20.383Z,95910.22
2023-01-22T17:54:48.100Z,95904.16
2023-01-22T17:57:15.917Z,95913.66
2023-01-22T17:59:43.565Z,95909.38
2023-01-22T18:02:11.399Z,95908.59
2023-01-22T18:04:39.056Z,95912.97
2023-01-22T18:07:06.739Z,95919.03
2023-01-22T18:09:35.759Z,95916.41
2023-01-22T18:12:03.389Z,95921.50
2023-01-22T18:14:33.985Z,95919.81
2023-01-22T18:17:02.647Z,95919.03
2023-01-22T18:19:30.333Z,95932.88
2023-01-22T18:21:57.944Z,95917.22
2023-01-22T18:24:26.470Z,95927.31
2023-01-22T18:26:57.809Z,95928.97
2023-01-22T18:29:26.618Z,95935.97
2023-01-22T18:31:54.544Z,95937.63
2023-01-22T18:34:22.209Z,95935.97
2023-01-22T18:36:49.855Z,95940.34
2023-01-22T18:39:19.514Z,95938.56
2023-01-22T18:41:47.815Z,95936.09
2023-01-22T18:44:19.360Z,95944.78
2023-01-22T18:46:51.646Z,95945.72
2023-01-22T18:49:20.049Z,95943.94
2023-01-22T18:51:47.704Z,95944.06
2023-01-22T18:54:16.337Z,95948.31
2023-01-22T18:56:43.967Z,95945.91
2023-01-22T18:59:12.995Z,95950.34
2023-01-22T19:01:43.597Z,95944.16
2023-01-22T19:04:17.921Z,95953.75
2023-01-22T19:06:48.142Z,95946.91
2023-01-22T19:09:16.446Z,95946.91
2023-01-22T19:11:47.039Z,95949.50
2023-01-22T19:14:16.522Z,95950.44
2023-01-22T19:16:48.456Z,95953.06
2023-01-22T19:19:16.924Z,95952.25
2023-01-22T19:21:47.129Z,95960.88
2023-01-22T19:24:16.230Z,95965.16
2023-01-22T19:26:46.442Z,95961.72
2023-01-22T19:29:17.244Z,95970.38
2023-01-22T19:31:51.798Z,95980.69
2023-01-22T19:34:24.224Z,95973.00
2023-01-22T19:36:53.633Z,95975.59
2023-01-22T19:39:22.466Z,95984.25
2023-01-22T19:41:50.365Z,95987.69
2023-01-22T19:44:18.140Z,95994.69
2023-01-22T19:46:47.395Z,95997.31
2023-01-22T19:49:15.164Z,95999.09
2023-01-22T19:51:43.059Z,96001.69
2023-01-22T19:54:10.975Z,95997.31
2023-01-22T19:56:39.884Z,96005.94
2023-01-22T19:59:11.082Z,96005.94
2023-01-22T20:01:40.135Z,96010.38
2023-01-22T20:04:12.537Z,96005.16
2023-01-22T20:06:41.136Z,96012.13
2023-01-22T20:09:08.794Z,96018.19
2023-01-22T20:11:36.702Z,96019.00
2023-01-22T20:14:04.403Z,96011.31
2023-01-22T20:16:32.180Z,96022.44
2023-01-22T20:18:59.861Z,96020.66
2023-01-22T20:21:29.991Z,96026.81
2023-01-22T20:23:57.691Z,96026.75
2023-01-22T20:26:25.357Z,96032.03
2023-01-22T20:28:53.051Z,96038.22
2023-01-22T20:31:23.504Z,96030.41
2023-01-22T20:33:52.430Z,96033.03
2023-01-22T20:36:21.672Z,96037.25
2023-01-22T20:38:52.984Z,96023.41
2023-01-22T20:41:21.290Z,96028.63
2023-01-22T20:43:49.520Z,96033.84
2023-01-22T20:46:19.860Z,96031.25
2023-01-22T20:48:48.469Z,96031.09
2023-01-22T20:51:18.106Z,96031.09
2023-01-22T20:53:46.646Z,96029.44
2023-01-22T20:56:18.082Z,96031.25
2023-01-22T20:58:45.826Z,96031.25
2023-01-22T21:01:15.942Z,96030.41
2023-01-22T21:03:44.207Z,96031.25
2023-01-22T21:06:14.257Z,96026.03
2023-01-22T21:08:42.232Z,96021.59
2023-01-22T21:11:12.582Z,96019.13
2023-01-22T21:13:41.591Z,96021.59
2023-01-22T21:16:10.974Z,96024.22
2023-01-22T21:18:41.439Z,96024.22
2023-01-22T21:21:09.737Z,96033.84
2023-01-22T21:23:37.467Z,96031.25
2023-01-22T21:26:05.854Z,96038.22
2023-01-22T21:28:33.817Z,96039.06
2023-01-22T21:31:07.661Z,96046.91
2023-01-22T21:33:35.307Z,96055.53
2023-01-22T21:36:03.096Z,96046.91
2023-01-22T21:38:30.971Z,96056.63
2023-01-22T21:41:06.517Z,96047.84
2023-01-22T21:43:52.597Z,96039.19
2023-01-22T21:46:25.309Z,96057.44
2023-01-22T21:48:55.164Z,96044.53
2023-01-22T21:51:22.888Z,96050.59
2023-01-22T21:53:50.558Z,96047.84
2023-01-22T21:56:18.184Z,96057.44
2023-01-22T21:58:46.086Z,96049.63
2023-01-22T22:01:16.189Z,96049.63
2023-01-22T22:03:45.465Z,96047.00
2023-01-22T22:06:14.198Z,96044.53
2023-01-22T22:08:43.508Z,96042.75
2023-01-22T22:11:12.588Z,96049.75
2023-01-22T22:13:41.058Z,96054.97
2023-01-22T22:16:09.943Z,96063.63
2023-01-22T22:18:38.476Z,96059.25
2023-01-22T22:21:09.321Z,96058.50
2023-01-22T22:23:37.476Z,96056.75
2023-01-22T22:26:06.688Z,96052.34
2023-01-22T22:28:34.918Z,96060.19
2023-01-22T22:31:04.034Z,96058.50
2023-01-22T22:33:31.860Z,96054.13
2023-01-22T22:36:00.961Z,96042.75
2023-01-22T22:38:30.048Z,96057.56
2023-01-22T22:41:01.898Z,96047.13
2023-01-22T22:43:32.948Z,96042.84
2023-01-22T22:46:05.973Z,96042.84
2023-01-22T22:48:33.693Z,96041.09
2023-01-22T22:51:01.738Z,96053.44
2023-01-22T22:53:30.733Z,96059.47
2023-01-22T22:55:58.338Z,96065.53
2023-01-22T22:58:26.019Z,96063.72
2023-01-22T23:00:53.627Z,96057.72
2023-01-22T23:03:21.339Z,96057.72
2023-01-22T23:05:48.985Z,96068.53
2023-01-22T23:08:16.772Z,96070.53
2023-01-22T23:10:45.735Z,96069.03
2023-01-22T23:13:13.424Z,96072.56
2023-01-22T23:15:41.039Z,96075.03
2023-01-22T23:18:09.041Z,96082.06
2023-01-22T23:20:36.701Z,96076.94
2023-01-22T23:23:04.475Z,96084.78
2023-01-22T23:25:32.233Z,96083.94
2023-01-22T23:28:01.268Z,96086.69
2023-01-22T23:30:29.053Z,96074.47
2023-01-22T23:32:56.693Z,96082.31
2023-01-22T23:35:24.315Z,96083.25
2023-01-22T23:37:51.948Z,96080.75
2023-01-22T23:40:19.909Z,96085.84
2023-01-22T23:42:49.447Z,96086.81
2023-01-22T23:45:18.528Z,96091.19
2023-01-22T23:47:46.170Z,96087.06
2023-01-22T23:50:13.893Z,96092.28
2023-01-22T23:52:41.533Z,96089.66
2023-01-22T23:55:09.866Z,96080.19
2023-01-22T23:57:37.631Z,96077.59
